St Ives, United Kingdom
Current Conditions -  °F | °C
As of 12:50 AM on Wednesday 26 Nov 2014 (Local Time) from EGDR Reporting Station
Haze Haze  
Wind Chill: 41°   Ceiling: 2000
Heat Index: 45°   Visibility: 6mi
Dew Point: 43°   Wind: 7mph
Humidity: 93%   Direction: 360°N
Pressure: 29.94"   Gusts: NA
Location:  50.21°N, 5.49°W
Report Text: EGDR 260050Z 36006KT 9999 HZ FEW010 OVC020 07/06 Q1014 WHT
Loading
Personal Weather Stations






























Interactive Weather Map New forecast layout! Learn more

10-Day Weather Forecast

Advertisements
Track Severe Weather on mobile